Terminal Aerodrome Forecast
Issued by NWS

Home | Current Version | Previous Version | Text Only | Print | Product List | Glossary On
Versions: 1 2 3 4 5 6 7 8 9 10 11 12 13 14 15 16 17 18 19 20 21 22 23 24 25
000
FTUS41 KPBZ 022124 AAI
TAFFKL
TAF AMD
KFKL 022124Z 0221/0318 23010G15KT P6SM SCT080
     FM030100 22010KT P6SM SCT050
     FM030600 23006KT P6SM SCT050 WS020/27035KT
     FM030900 25006KT P6SM BKN035 PROB30 0310/0314 4SM -TSRA
      BKN015CB
     FM031700 27008G17KT P6SM VCTS BKN020CB=

USA.gov is the U.S. government's official web portal to all federal, state and local government web resources and services.